sensor_id;sensor_type;location;lat;lon;timestamp;pressure;altitude;pressure_sealevel;temperature;humidity
11806;BME280;5960;42.602;23.482;2022-09-29T00:00:39;92561.75;;;18.86;60.94
11806;BME280;5960;42.602;23.482;2022-09-29T00:03:07;92579.34;;;18.82;61.41
11806;BME280;5960;42.602;23.482;2022-09-29T00:05:35;92569.44;;;18.72;61.75
11806;BME280;5960;42.602;23.482;2022-09-29T00:08:01;92575.50;;;18.57;62.08
11806;BME280;5960;42.602;23.482;2022-09-29T00:10:28;92588.00;;;18.46;62.73
11806;BME280;5960;42.602;23.482;2022-09-29T00:12:55;92583.94;;;18.39;62.79
11806;BME280;5960;42.602;23.482;2022-09-29T00:15:21;92580.19;;;18.34;63.22
11806;BME280;5960;42.602;23.482;2022-09-29T00:17:48;92569.84;;;18.38;63.09
11806;BME280;5960;42.602;23.482;2022-09-29T00:20:16;92572.44;;;18.28;63.38
11806;BME280;5960;42.602;23.482;2022-09-29T00:22:43;92578.66;;;18.01;64.42
11806;BME280;5960;42.602;23.482;2022-09-29T00:25:10;92572.38;;;17.80;65.07
11806;BME280;5960;42.602;23.482;2022-09-29T00:27:37;92574.34;;;17.62;65.56
11806;BME280;5960;42.602;23.482;2022-09-29T00:30:04;92561.22;;;17.50;66.43
11806;BME280;5960;42.602;23.482;2022-09-29T00:32:31;92564.13;;;17.49;65.68
11806;BME280;5960;42.602;23.482;2022-09-29T00:34:58;92560.84;;;17.36;66.37
11806;BME280;5960;42.602;23.482;2022-09-29T00:37:26;92549.09;;;17.32;66.30
11806;BME280;5960;42.602;23.482;2022-09-29T00:39:53;92571.94;;;17.28;67.29
11806;BME280;5960;42.602;23.482;2022-09-29T00:42:20;92567.06;;;17.20;67.55
11806;BME280;5960;42.602;23.482;2022-09-29T00:45:03;92564.41;;;17.20;67.74
11806;BME280;5960;42.602;23.482;2022-09-29T00:47:34;92564.41;;;17.20;67.66
11806;BME280;5960;42.602;23.482;2022-09-29T00:50:04;92566.56;;;17.23;67.52
11806;BME280;5960;42.602;23.482;2022-09-29T00:52:38;92560.25;;;17.29;67.77
11806;BME280;5960;42.602;23.482;2022-09-29T00:55:12;92564.41;;;17.20;68.41
11806;BME280;5960;42.602;23.482;2022-09-29T00:57:43;92559.81;;;17.10;68.88
11806;BME280;5960;42.602;23.482;2022-09-29T01:00:13;92559.34;;;16.91;69.54
11806;BME280;5960;42.602;23.482;2022-09-29T01:02:44;92562.50;;;16.88;69.89
11806;BME280;5960;42.602;23.482;2022-09-29T01:05:15;92560.94;;;16.92;69.86
11806;BME280;5960;42.602;23.482;2022-09-29T01:07:45;92557.16;;;16.88;70.10
11806;BME280;5960;42.602;23.482;2022-09-29T01:10:13;92560.31;;;16.84;70.60
11806;BME280;5960;42.602;23.482;2022-09-29T01:12:42;92556.59;;;16.85;70.29
11806;BME280;5960;42.602;23.482;2022-09-29T01:15:12;92555.75;;;16.80;69.67
11806;BME280;5960;42.602;23.482;2022-09-29T01:17:39;92548.69;;;16.91;68.07
11806;BME280;5960;42.602;23.482;2022-09-29T01:20:09;92545.94;;;17.08;67.54
11806;BME280;5960;42.602;23.482;2022-09-29T01:23:06;92546.38;;;17.27;66.52
11806;BME280;5960;42.602;23.482;2022-09-29T01:26:09;92553.94;;;17.40;65.88
11806;BME280;5960;42.602;23.482;2022-09-29T01:29:05;92552.34;;;17.39;66.87
11806;BME280;5960;42.602;23.482;2022-09-29T01:31:46;92540.63;;;17.40;67.29
11806;BME280;5960;42.602;23.482;2022-09-29T01:34:20;92546.44;;;17.32;67.57
11806;BME280;5960;42.602;23.482;2022-09-29T01:36:55;92544.50;;;17.22;67.69
11806;BME280;5960;42.602;23.482;2022-09-29T01:39:31;92550.22;;;17.09;67.49
11806;BME280;5960;42.602;23.482;2022-09-29T01:42:02;92543.25;;;17.03;67.56
11806;BME280;5960;42.602;23.482;2022-09-29T01:44:34;92555.59;;;17.14;67.25
11806;BME280;5960;42.602;23.482;2022-09-29T01:47:08;92565.19;;;17.15;66.82
11806;BME280;5960;42.602;23.482;2022-09-29T01:49:40;92571.19;;;17.33;66.39
11806;BME280;5960;42.602;23.482;2022-09-29T01:52:11;92584.25;;;17.34;66.97
11806;BME280;5960;42.602;23.482;2022-09-29T01:54:43;92588.75;;;17.34;67.19
11806;BME280;5960;42.602;23.482;2022-09-29T01:57:13;92589.53;;;17.29;67.30
11806;BME280;5960;42.602;23.482;2022-09-29T01:59:46;92585.84;;;17.08;68.67
11806;BME280;5960;42.602;23.482;2022-09-29T02:02:20;92585.41;;;16.94;69.26
11806;BME280;5960;42.602;23.482;2022-09-29T02:04:52;92586.31;;;16.77;70.07
11806;BME280;5960;42.602;23.482;2022-09-29T02:07:25;92584.47;;;16.78;70.55
11806;BME280;5960;42.602;23.482;2022-09-29T02:09:57;92574.31;;;16.52;71.13
11806;BME280;5960;42.602;23.482;2022-09-29T02:12:27;92580.75;;;16.34;71.90
11806;BME280;5960;42.602;23.482;2022-09-29T02:14:57;92580.56;;;16.41;72.37
11806;BME280;5960;42.602;23.482;2022-09-29T02:17:29;92586.81;;;16.13;72.87
11806;BME280;5960;42.602;23.482;2022-09-29T02:19:57;92587.94;;;16.17;73.24
11806;BME280;5960;42.602;23.482;2022-09-29T02:22:24;92588.09;;;16.27;72.94
11806;BME280;5960;42.602;23.482;2022-09-29T02:24:53;92589.94;;;16.27;73.01
11806;BME280;5960;42.602;23.482;2022-09-29T02:27:21;92585.53;;;16.15;73.57
11806;BME280;5960;42.602;23.482;2022-09-29T02:29:48;92589.72;;;16.11;73.77
11806;BME280;5960;42.602;23.482;2022-09-29T02:32:15;92587.56;;;16.08;74.14
11806;BME280;5960;42.602;23.482;2022-09-29T02:34:47;92590.03;;;16.15;73.94
11806;BME280;5960;42.602;23.482;2022-09-29T02:37:29;92581.78;;;15.94;74.64
11806;BME280;5960;42.602;23.482;2022-09-29T02:40:08;92579.47;;;15.98;74.86
11806;BME280;5960;42.602;23.482;2022-09-29T02:42:43;92586.88;;;15.96;74.67
11806;BME280;5960;42.602;23.482;2022-09-29T02:45:25;92599.41;;;16.00;74.92
11806;BME280;5960;42.602;23.482;2022-09-29T02:48:10;92580.72;;;15.95;74.85
11806;BME280;5960;42.602;23.482;2022-09-29T02:50:59;92585.44;;;15.88;75.47
11806;BME280;5960;42.602;23.482;2022-09-29T02:53:38;92580.56;;;15.85;75.46
11806;BME280;5960;42.602;23.482;2022-09-29T02:56:13;92592.34;;;15.72;76.13
11806;BME280;5960;42.602;23.482;2022-09-29T02:58:48;92593.47;;;15.76;75.90
11806;BME280;5960;42.602;23.482;2022-09-29T03:01:16;92599.50;;;15.88;75.62
11806;BME280;5960;42.602;23.482;2022-09-29T03:03:43;92615.97;;;15.73;75.99
11806;BME280;5960;42.602;23.482;2022-09-29T03:06:12;92612.28;;;15.74;75.94
11806;BME280;5960;42.602;23.482;2022-09-29T03:08:39;92611.72;;;15.72;76.00
11806;BME280;5960;42.602;23.482;2022-09-29T03:11:06;92611.97;;;15.71;76.22
11806;BME280;5960;42.602;23.482;2022-09-29T03:13:32;92607.63;;;15.82;75.81
11806;BME280;5960;42.602;23.482;2022-09-29T03:16:00;92599.31;;;15.78;75.94
11806;BME280;5960;42.602;23.482;2022-09-29T03:18:26;92601.47;;;15.81;75.94
11806;BME280;5960;42.602;23.482;2022-09-29T03:20:53;92600.72;;;15.98;75.11
11806;BME280;5960;42.602;23.482;2022-09-29T03:23:22;92592.75;;;15.98;74.96
11806;BME280;5960;42.602;23.482;2022-09-29T03:25:48;92589.59;;;15.84;75.02
11806;BME280;5960;42.602;23.482;2022-09-29T03:28:15;92595.56;;;15.74;75.72
11806;BME280;5960;42.602;23.482;2022-09-29T03:30:42;92591.03;;;15.74;75.61
11806;BME280;5960;42.602;23.482;2022-09-29T03:33:09;92578.22;;;15.71;75.77
11806;BME280;5960;42.602;23.482;2022-09-29T03:35:36;92579.88;;;15.89;74.71
11806;BME280;5960;42.602;23.482;2022-09-29T03:38:03;92589.50;;;15.78;74.56
11806;BME280;5960;42.602;23.482;2022-09-29T03:40:31;92582.16;;;16.03;72.87
11806;BME280;5960;42.602;23.482;2022-09-29T03:42:57;92586.19;;;16.22;71.89
11806;BME280;5960;42.602;23.482;2022-09-29T03:45:25;92588.88;;;16.28;71.74
11806;BME280;5960;42.602;23.482;2022-09-29T03:47:51;92593.78;;;16.58;69.93
11806;BME280;5960;42.602;23.482;2022-09-29T03:50:18;92594.84;;;16.79;69.28
11806;BME280;5960;42.602;23.482;2022-09-29T03:52:45;92602.59;;;16.81;69.25
11806;BME280;5960;42.602;23.482;2022-09-29T03:55:11;92602.25;;;16.77;69.74
11806;BME280;5960;42.602;23.482;2022-09-29T03:57:39;92607.38;;;16.84;69.70
11806;BME280;5960;42.602;23.482;2022-09-29T04:00:07;92601.22;;;16.78;69.62
11806;BME280;5960;42.602;23.482;2022-09-29T04:02:34;92609.03;;;16.63;70.32
11806;BME280;5960;42.602;23.482;2022-09-29T04:05:01;92614.25;;;16.58;70.92
11806;BME280;5960;42.602;23.482;2022-09-29T04:07:27;92600.72;;;16.59;70.56
11806;BME280;5960;42.602;23.482;2022-09-29T04:09:55;92592.44;;;16.55;70.35
11806;BME280;5960;42.602;23.482;2022-09-29T04:12:22;92597.19;;;16.53;69.66
11806;BME280;5960;42.602;23.482;2022-09-29T04:14:50;92594.03;;;16.57;68.75
11806;BME280;5960;42.602;23.482;2022-09-29T04:17:17;92584.88;;;16.69;69.07
11806;BME280;5960;42.602;23.482;2022-09-29T04:19:44;92591.06;;;16.75;68.53
11806;BME280;5960;42.602;23.482;2022-09-29T04:22:10;92591.25;;;16.91;68.57
11806;BME280;5960;42.602;23.482;2022-09-29T04:24:37;92586.88;;;17.02;66.99
11806;BME280;5960;42.602;23.482;2022-09-29T04:27:04;92589.88;;;17.10;65.03
11806;BME280;5960;42.602;23.482;2022-09-29T04:29:31;92591.00;;;17.14;64.54
11806;BME280;5960;42.602;23.482;2022-09-29T04:31:59;92596.06;;;17.16;66.23
11806;BME280;5960;42.602;23.482;2022-09-29T04:34:26;92598.31;;;17.02;68.42
11806;BME280;5960;42.602;23.482;2022-09-29T04:36:53;92586.31;;;16.77;69.32
11806;BME280;5960;42.602;23.482;2022-09-29T04:39:19;92595.34;;;16.54;70.12
11806;BME280;5960;42.602;23.482;2022-09-29T04:41:46;92602.81;;;16.35;70.36
11806;BME280;5960;42.602;23.482;2022-09-29T04:44:13;92602.22;;;16.11;71.31
11806;BME280;5960;42.602;23.482;2022-09-29T04:46:40;92597.00;;;15.64;73.28
11806;BME280;5960;42.602;23.482;2022-09-29T04:49:08;92601.50;;;15.47;74.50
11806;BME280;5960;42.602;23.482;2022-09-29T04:51:35;92603.28;;;15.12;76.48
11806;BME280;5960;42.602;23.482;2022-09-29T04:54:01;92597.22;;;15.00;77.55
11806;BME280;5960;42.602;23.482;2022-09-29T04:56:28;92602.31;;;15.01;77.64
11806;BME280;5960;42.602;23.482;2022-09-29T04:58:56;92590.31;;;14.99;78.23
11806;BME280;5960;42.602;23.482;2022-09-29T05:01:24;92590.19;;;15.06;78.51
11806;BME280;5960;42.602;23.482;2022-09-29T05:03:50;92602.94;;;15.09;78.47
11806;BME280;5960;42.602;23.482;2022-09-29T05:06:19;92590.13;;;15.17;77.82
11806;BME280;5960;42.602;23.482;2022-09-29T05:08:45;92588.94;;;15.25;77.83
11806;BME280;5960;42.602;23.482;2022-09-29T05:11:12;92586.03;;;15.44;77.74
11806;BME280;5960;42.602;23.482;2022-09-29T05:13:39;92587.31;;;15.58;76.57
11806;BME280;5960;42.602;23.482;2022-09-29T05:16:06;92576.47;;;15.77;76.15
11806;BME280;5960;42.602;23.482;2022-09-29T05:18:33;92576.00;;;15.97;75.23
11806;BME280;5960;42.602;23.482;2022-09-29T05:21:03;92579.78;;;16.23;73.76
11806;BME280;5960;42.602;23.482;2022-09-29T05:23:31;92579.75;;;16.40;73.24
11806;BME280;5960;42.602;23.482;2022-09-29T05:26:00;92584.53;;;16.61;72.29
11806;BME280;5960;42.602;23.482;2022-09-29T05:28:27;92581.28;;;17.03;63.56
11806;BME280;5960;42.602;23.482;2022-09-29T05:30:54;92575.66;;;17.27;61.37
11806;BME280;5960;42.602;23.482;2022-09-29T05:33:21;92578.28;;;17.54;60.08
11806;BME280;5960;42.602;23.482;2022-09-29T05:35:47;92587.31;;;17.86;58.16
11806;BME280;5960;42.602;23.482;2022-09-29T05:38:14;92581.34;;;18.01;60.44
11806;BME280;5960;42.602;23.482;2022-09-29T05:40:42;92588.06;;;18.14;57.47
11806;BME280;5960;42.602;23.482;2022-09-29T05:43:09;92577.00;;;18.38;55.71
11806;BME280;5960;42.602;23.482;2022-09-29T05:45:36;92579.97;;;18.41;55.41
11806;BME280;5960;42.602;23.482;2022-09-29T05:48:02;92576.59;;;18.61;55.73
11806;BME280;5960;42.602;23.482;2022-09-29T05:50:29;92571.59;;;18.80;55.48
11806;BME280;5960;42.602;23.482;2022-09-29T05:53:01;92583.91;;;18.92;54.58
11806;BME280;5960;42.602;23.482;2022-09-29T05:55:28;92578.97;;;19.21;53.70
11806;BME280;5960;42.602;23.482;2022-09-29T05:57:56;92584.31;;;19.42;52.40
11806;BME280;5960;42.602;23.482;2022-09-29T06:00:23;92582.44;;;19.43;53.04
11806;BME280;5960;42.602;23.482;2022-09-29T06:02:49;92588.34;;;19.55;51.42
11806;BME280;5960;42.602;23.482;2022-09-29T06:05:16;92598.47;;;19.58;51.32
11806;BME280;5960;42.602;23.482;2022-09-29T06:07:43;92598.75;;;19.77;51.63
11806;BME280;5960;42.602;23.482;2022-09-29T06:10:09;92606.28;;;20.06;50.93
11806;BME280;5960;42.602;23.482;2022-09-29T06:12:37;92608.94;;;20.32;50.38
11806;BME280;5960;42.602;23.482;2022-09-29T06:15:06;92617.44;;;20.55;49.75
11806;BME280;5960;42.602;23.482;2022-09-29T06:17:33;92620.59;;;20.67;55.33
11806;BME280;5960;42.602;23.482;2022-09-29T06:20:00;92615.78;;;20.64;55.58
11806;BME280;5960;42.602;23.482;2022-09-29T06:22:27;92616.91;;;20.58;53.96
11806;BME280;5960;42.602;23.482;2022-09-29T06:24:53;92615.00;;;20.53;52.57
11806;BME280;5960;42.602;23.482;2022-09-29T06:27:20;92608.88;;;20.42;52.59
11806;BME280;5960;42.602;23.482;2022-09-29T06:29:47;92616.31;;;20.71;50.89
11806;BME280;5960;42.602;23.482;2022-09-29T06:32:15;92626.69;;;20.99;54.48
11806;BME280;5960;42.602;23.482;2022-09-29T06:34:42;92635.97;;;21.22;55.48
11806;BME280;5960;42.602;23.482;2022-09-29T06:37:22;92633.69;;;21.45;54.69
11806;BME280;5960;42.602;23.482;2022-09-29T06:40:01;92650.75;;;21.70;54.08
11806;BME280;5960;42.602;23.482;2022-09-29T06:42:28;92635.03;;;21.92;53.61
11806;BME280;5960;42.602;23.482;2022-09-29T06:44:54;92646.63;;;22.17;52.93
11806;BME280;5960;42.602;23.482;2022-09-29T06:47:22;92641.22;;;22.22;52.97
11806;BME280;5960;42.602;23.482;2022-09-29T06:49:49;92649.84;;;22.19;52.26
11806;BME280;5960;42.602;23.482;2022-09-29T06:52:17;92646.50;;;21.98;53.40
11806;BME280;5960;42.602;23.482;2022-09-29T06:54:43;92652.16;;;21.97;55.23
11806;BME280;5960;42.602;23.482;2022-09-29T06:57:10;92639.75;;;22.06;54.90
11806;BME280;5960;42.602;23.482;2022-09-29T06:59:38;92651.47;;;22.15;54.36
11806;BME280;5960;42.602;23.482;2022-09-29T07:02:04;92656.75;;;22.25;54.54
11806;BME280;5960;42.602;23.482;2022-09-29T07:04:33;92663.81;;;22.16;53.80
11806;BME280;5960;42.602;23.482;2022-09-29T07:06:59;92664.63;;;22.12;54.85
11806;BME280;5960;42.602;23.482;2022-09-29T07:09:26;92647.94;;;22.20;54.72
11806;BME280;5960;42.602;23.482;2022-09-29T07:11:53;92659.28;;;22.12;53.89
11806;BME280;5960;42.602;23.482;2022-09-29T07:14:21;92660.78;;;22.28;53.95
11806;BME280;5960;42.602;23.482;2022-09-29T07:16:48;92673.66;;;22.26;52.54
11806;BME280;5960;42.602;23.482;2022-09-29T07:19:16;92659.06;;;22.37;53.06
11806;BME280;5960;42.602;23.482;2022-09-29T07:21:45;92678.47;;;22.29;52.38
11806;BME280;5960;42.602;23.482;2022-09-29T07:24:12;92669.19;;;22.51;51.95
11806;BME280;5960;42.602;23.482;2022-09-29T07:26:39;92660.72;;;22.68;52.06
11806;BME280;5960;42.602;23.482;2022-09-29T07:29:06;92661.78;;;22.67;51.24
11806;BME280;5960;42.602;23.482;2022-09-29T07:31:33;92669.47;;;22.49;51.53
11806;BME280;5960;42.602;23.482;2022-09-29T07:34:00;92674.75;;;22.60;51.86
11806;BME280;5960;42.602;23.482;2022-09-29T07:36:27;92670.13;;;22.65;52.49
11806;BME280;5960;42.602;23.482;2022-09-29T07:38:55;92661.97;;;22.76;53.21
11806;BME280;5960;42.602;23.482;2022-09-29T07:41:22;92674.88;;;22.98;51.97
11806;BME280;5960;42.602;23.482;2022-09-29T07:43:49;92663.72;;;23.10;51.89
11806;BME280;5960;42.602;23.482;2022-09-29T07:46:15;92663.91;;;23.19;50.38
11806;BME280;5960;42.602;23.482;2022-09-29T07:48:42;92658.25;;;22.72;51.16
11806;BME280;5960;42.602;23.482;2022-09-29T07:51:11;92667.91;;;22.43;52.22
11806;BME280;5960;42.602;23.482;2022-09-29T07:53:38;92673.66;;;22.61;52.55
11806;BME280;5960;42.602;23.482;2022-09-29T07:56:08;92670.41;;;22.88;50.98
11806;BME280;5960;42.602;23.482;2022-09-29T07:58:37;92669.41;;;23.33;51.10
11806;BME280;5960;42.602;23.482;2022-09-29T08:01:05;92674.69;;;23.81;49.32
11806;BME280;5960;42.602;23.482;2022-09-29T08:03:34;92670.19;;;24.15;49.34
11806;BME280;5960;42.602;23.482;2022-09-29T08:06:01;92669.19;;;24.44;48.70
11806;BME280;5960;42.602;23.482;2022-09-29T08:08:28;92677.13;;;24.68;47.19
11806;BME280;5960;42.602;23.482;2022-09-29T08:11:01;92685.19;;;25.01;45.88
11806;BME280;5960;42.602;23.482;2022-09-29T08:13:29;92676.28;;;25.01;44.71
11806;BME280;5960;42.602;23.482;2022-09-29T08:15:57;92671.03;;;25.09;43.96
11806;BME280;5960;42.602;23.482;2022-09-29T08:18:24;92676.13;;;25.67;43.42
11806;BME280;5960;42.602;23.482;2022-09-29T08:20:51;92684.63;;;26.34;40.94
11806;BME280;5960;42.602;23.482;2022-09-29T08:23:18;92680.97;;;26.84;40.77
11806;BME280;5960;42.602;23.482;2022-09-29T08:25:45;92684.34;;;27.21;40.94
11806;BME280;5960;42.602;23.482;2022-09-29T08:28:12;92671.91;;;27.60;41.93
11806;BME280;5960;42.602;23.482;2022-09-29T08:30:40;92669.75;;;28.06;38.69
11806;BME280;5960;42.602;23.482;2022-09-29T08:33:07;92684.56;;;28.62;38.86
11806;BME280;5960;42.602;23.482;2022-09-29T08:35:39;92685.81;;;28.91;38.55
11806;BME280;5960;42.602;23.482;2022-09-29T08:38:05;92676.72;;;28.69;38.83
11806;BME280;5960;42.602;23.482;2022-09-29T08:40:32;92694.31;;;28.54;37.70
11806;BME280;5960;42.602;23.482;2022-09-29T08:43:06;92700.53;;;28.28;38.71
11806;BME280;5960;42.602;23.482;2022-09-29T08:45:40;92719.28;;;27.89;39.14
11806;BME280;5960;42.602;23.482;2022-09-29T08:48:12;92692.81;;;27.86;36.52
11806;BME280;5960;42.602;23.482;2022-09-29T08:50:43;92699.69;;;27.92;35.96
11806;BME280;5960;42.602;23.482;2022-09-29T08:53:15;92700.34;;;28.77;37.54
11806;BME280;5960;42.602;23.482;2022-09-29T08:55:46;92707.59;;;29.12;37.60
11806;BME280;5960;42.602;23.482;2022-09-29T08:58:16;92700.63;;;29.50;37.26
11806;BME280;5960;42.602;23.482;2022-09-29T09:00:52;92707.81;;;29.46;36.55
11806;BME280;5960;42.602;23.482;2022-09-29T09:06:35;92705.72;;;29.81;37.67
11806;BME280;5960;42.602;23.482;2022-09-29T09:12:07;92716.19;;;29.23;36.38
11806;BME280;5960;42.602;23.482;2022-09-29T09:14:59;92702.91;;;28.56;36.02
11806;BME280;5960;42.602;23.482;2022-09-29T09:17:44;92713.50;;;27.82;35.30
11806;BME280;5960;42.602;23.482;2022-09-29T09:20:25;92712.41;;;27.34;36.52
11806;BME280;5960;42.602;23.482;2022-09-29T09:22:57;92712.69;;;26.92;37.36
11806;BME280;5960;42.602;23.482;2022-09-29T09:25:29;92709.59;;;26.62;38.12
11806;BME280;5960;42.602;23.482;2022-09-29T09:28:05;92708.72;;;27.79;37.01
11806;BME280;5960;42.602;23.482;2022-09-29T09:30:41;92698.78;;;28.41;34.65
11806;BME280;5960;42.602;23.482;2022-09-29T09:33:20;92707.19;;;27.96;33.44
11806;BME280;5960;42.602;23.482;2022-09-29T09:35:51;92720.91;;;28.26;33.65
11806;BME280;5960;42.602;23.482;2022-09-29T09:38:23;92702.44;;;28.45;32.69
11806;BME280;5960;42.602;23.482;2022-09-29T09:40:54;92716.75;;;28.98;31.95
11806;BME280;5960;42.602;23.482;2022-09-29T09:43:26;92705.59;;;28.74;32.64
11806;BME280;5960;42.602;23.482;2022-09-29T09:46:01;92709.94;;;28.40;32.02
11806;BME280;5960;42.602;23.482;2022-09-29T09:48:34;92704.50;;;28.13;32.68
11806;BME280;5960;42.602;23.482;2022-09-29T09:51:20;92698.03;;;27.65;34.17
11806;BME280;5960;42.602;23.482;2022-09-29T09:53:52;92704.03;;;28.29;33.57
11806;BME280;5960;42.602;23.482;2022-09-29T09:56:30;92696.22;;;28.45;33.94
11806;BME280;5960;42.602;23.482;2022-09-29T09:59:11;92687.66;;;29.08;31.53
11806;BME280;5960;42.602;23.482;2022-09-29T10:01:42;92694.56;;;29.53;30.67
11806;BME280;5960;42.602;23.482;2022-09-29T10:04:11;92699.25;;;29.95;30.37
11806;BME280;5960;42.602;23.482;2022-09-29T10:06:38;92704.19;;;29.71;30.47
11806;BME280;5960;42.602;23.482;2022-09-29T10:09:10;92699.97;;;30.13;30.24
11806;BME280;5960;42.602;23.482;2022-09-29T10:11:40;92706.91;;;30.65;29.78
11806;BME280;5960;42.602;23.482;2022-09-29T10:14:11;92717.91;;;29.75;29.33
11806;BME280;5960;42.602;23.482;2022-09-29T10:16:43;92692.31;;;29.55;30.55
11806;BME280;5960;42.602;23.482;2022-09-29T10:19:12;92709.03;;;29.18;30.78
11806;BME280;5960;42.602;23.482;2022-09-29T10:21:40;92699.66;;;28.98;32.13
11806;BME280;5960;42.602;23.482;2022-09-29T10:24:22;92700.84;;;30.05;30.37
11806;BME280;5960;42.602;23.482;2022-09-29T10:26:52;92701.63;;;30.69;30.31
11806;BME280;5960;42.602;23.482;2022-09-29T10:29:24;92698.44;;;31.71;29.41
11806;BME280;5960;42.602;23.482;2022-09-29T10:31:59;92694.88;;;30.87;28.93
11806;BME280;5960;42.602;23.482;2022-09-29T10:34:28;92699.78;;;31.65;29.65
11806;BME280;5960;42.602;23.482;2022-09-29T10:36:57;92701.09;;;32.21;28.07
11806;BME280;5960;42.602;23.482;2022-09-29T10:39:30;92697.19;;;31.81;29.16
11806;BME280;5960;42.602;23.482;2022-09-29T10:41:58;92701.00;;;30.84;30.13
11806;BME280;5960;42.602;23.482;2022-09-29T10:44:30;92708.59;;;30.57;31.00
11806;BME280;5960;42.602;23.482;2022-09-29T10:46:58;92693.81;;;31.13;30.60
11806;BME280;5960;42.602;23.482;2022-09-29T10:49:27;92702.16;;;31.42;28.39
11806;BME280;5960;42.602;23.482;2022-09-29T10:52:01;92695.81;;;30.91;28.90
11806;BME280;5960;42.602;23.482;2022-09-29T10:54:31;92688.44;;;31.38;29.14
11806;BME280;5960;42.602;23.482;2022-09-29T10:57:10;92690.16;;;31.92;27.65
11806;BME280;5960;42.602;23.482;2022-09-29T10:59:45;92683.56;;;32.75;27.08
11806;BME280;5960;42.602;23.482;2022-09-29T11:02:19;92676.94;;;33.05;27.55
11806;BME280;5960;42.602;23.482;2022-09-29T11:04:48;92686.25;;;32.59;27.45
11806;BME280;5960;42.602;23.482;2022-09-29T11:07:16;92686.69;;;32.20;27.85
11806;BME280;5960;42.602;23.482;2022-09-29T11:09:43;92683.41;;;32.15;28.97
11806;BME280;5960;42.602;23.482;2022-09-29T11:12:28;92687.16;;;32.10;29.39
11806;BME280;5960;42.602;23.482;2022-09-29T11:14:56;92689.59;;;31.87;28.70
11806;BME280;5960;42.602;23.482;2022-09-29T11:17:25;92692.00;;;31.76;28.66
11806;BME280;5960;42.602;23.482;2022-09-29T11:19:55;92686.59;;;31.67;28.79
11806;BME280;5960;42.602;23.482;2022-09-29T11:22:59;92692.28;;;31.49;28.75
11806;BME280;5960;42.602;23.482;2022-09-29T11:28:42;92690.47;;;31.54;29.70
11806;BME280;5960;42.602;23.482;2022-09-29T11:34:40;92684.75;;;32.33;28.92
11806;BME280;5960;42.602;23.482;2022-09-29T11:37:19;92684.28;;;33.16;27.83
11806;BME280;5960;42.602;23.482;2022-09-29T11:39:55;92678.88;;;33.49;26.38
11806;BME280;5960;42.602;23.482;2022-09-29T11:42:36;92680.75;;;33.00;26.43
11806;BME280;5960;42.602;23.482;2022-09-29T11:45:08;92688.59;;;33.17;27.31
11806;BME280;5960;42.602;23.482;2022-09-29T11:47:49;92671.63;;;33.56;27.47
11806;BME280;5960;42.602;23.482;2022-09-29T11:50:27;92653.91;;;33.34;27.25
11806;BME280;5960;42.602;23.482;2022-09-29T11:53:09;92669.59;;;33.53;26.73
11806;BME280;5960;42.602;23.482;2022-09-29T11:55:56;92667.31;;;33.23;26.51
11806;BME280;5960;42.602;23.482;2022-09-29T11:58:36;92670.28;;;33.18;27.65
11806;BME280;5960;42.602;23.482;2022-09-29T12:01:19;92674.31;;;33.88;27.54
11806;BME280;5960;42.602;23.482;2022-09-29T12:03:51;92667.53;;;33.82;26.69
11806;BME280;5960;42.602;23.482;2022-09-29T12:06:52;92663.44;;;33.24;27.23
11806;BME280;5960;42.602;23.482;2022-09-29T12:12:17;92669.16;;;31.56;28.49
11806;BME280;5960;42.602;23.482;2022-09-29T12:15:00;92676.91;;;31.07;30.39
11806;BME280;5960;42.602;23.482;2022-09-29T12:17:32;92661.00;;;30.85;30.89
11806;BME280;5960;42.602;23.482;2022-09-29T12:20:03;92673.00;;;30.50;29.87
11806;BME280;5960;42.602;23.482;2022-09-29T12:22:31;92666.31;;;30.26;30.02
11806;BME280;5960;42.602;23.482;2022-09-29T12:25:01;92661.91;;;29.92;30.97
11806;BME280;5960;42.602;23.482;2022-09-29T12:27:32;92661.94;;;29.62;32.35
11806;BME280;5960;42.602;23.482;2022-09-29T12:30:03;92660.88;;;29.54;31.95
11806;BME280;5960;42.602;23.482;2022-09-29T12:32:36;92664.50;;;29.58;32.20
11806;BME280;5960;42.602;23.482;2022-09-29T12:35:10;92671.53;;;29.59;32.27
11806;BME280;5960;42.602;23.482;2022-09-29T12:37:45;92673.84;;;29.39;32.09
11806;BME280;5960;42.602;23.482;2022-09-29T12:40:18;92674.53;;;29.19;34.01
11806;BME280;5960;42.602;23.482;2022-09-29T12:42:57;92677.22;;;28.89;34.23
11806;BME280;5960;42.602;23.482;2022-09-29T12:45:30;92667.00;;;28.68;35.14
11806;BME280;5960;42.602;23.482;2022-09-29T12:48:16;92668.97;;;28.59;35.01
11806;BME280;5960;42.602;23.482;2022-09-29T12:50:49;92663.09;;;28.39;35.55
11806;BME280;5960;42.602;23.482;2022-09-29T12:53:21;92666.75;;;28.26;35.25
11806;BME280;5960;42.602;23.482;2022-09-29T12:55:56;92671.38;;;28.16;34.57
11806;BME280;5960;42.602;23.482;2022-09-29T12:58:30;92667.69;;;28.03;35.60
11806;BME280;5960;42.602;23.482;2022-09-29T13:01:02;92660.97;;;27.92;35.40
11806;BME280;5960;42.602;23.482;2022-09-29T13:03:59;92675.31;;;27.92;34.36
11806;BME280;5960;42.602;23.482;2022-09-29T13:06:43;92679.78;;;27.88;34.60
11806;BME280;5960;42.602;23.482;2022-09-29T13:09:29;92685.47;;;27.78;35.66
11806;BME280;5960;42.602;23.482;2022-09-29T13:12:13;92683.84;;;27.51;36.90
11806;BME280;5960;42.602;23.482;2022-09-29T13:14:57;92676.84;;;27.58;36.58
11806;BME280;5960;42.602;23.482;2022-09-29T13:17:37;92677.94;;;27.48;37.29
11806;BME280;5960;42.602;23.482;2022-09-29T13:26:42;92674.13;;;27.09;35.79
11806;BME280;5960;42.602;23.482;2022-09-29T13:29:18;92678.94;;;26.81;36.46
11806;BME280;5960;42.602;23.482;2022-09-29T13:31:50;92676.81;;;26.78;38.35
11806;BME280;5960;42.602;23.482;2022-09-29T13:34:24;92675.44;;;26.89;37.93
11806;BME280;5960;42.602;23.482;2022-09-29T13:36:53;92683.03;;;27.10;37.97
11806;BME280;5960;42.602;23.482;2022-09-29T13:39:31;92684.72;;;27.28;35.64
11806;BME280;5960;42.602;23.482;2022-09-29T13:42:25;92687.81;;;27.13;35.33